Time;durP1;ratioP1;P1;durP2;ratioP2;P2;SDS_P1;SDS_P2;PMS_P1;PMS_P2;Temp;Humidity;BMP_temperature;BMP_pressure;BME280_temperature;BME280_humidity;BME280_pressure;Samples;Min_cycle;Max_cycle;Signal;HPM_P1;HPM_P2
2022/12/20 00:01:51;;;;;;;2.03;1.60;;;9.60;99.90;;;;;;5078364;28;20297;-75
2022/12/20 00:04:16;;;;;;;2.53;1.60;;;9.60;99.90;;;;;;5096573;28;20166;-75
2022/12/20 00:06:42;;;;;;;2.97;1.40;;;9.60;99.90;;;;;;5078372;28;20220;-75
2022/12/20 00:09:08;;;;;;;1.97;1.23;;;9.60;99.90;;;;;;5096638;28;20230;-75
2022/12/20 00:11:36;;;;;;;1.30;1.20;;;9.60;99.90;;;;;;5096387;28;20194;-75
2022/12/20 00:14:02;;;;;;;2.80;1.47;;;9.60;99.90;;;;;;5078281;28;20222;-75
2022/12/20 00:16:28;;;;;;;2.67;1.60;;;9.70;99.90;;;;;;5096484;28;20198;-75
2022/12/20 00:18:59;;;;;;;2.07;1.23;;;9.70;99.90;;;;;;5078163;28;20166;-75
2022/12/20 00:21:26;;;;;;;4.23;1.40;;;9.70;99.90;;;;;;5096362;28;20741;-75
2022/12/20 00:23:52;;;;;;;2.07;1.50;;;9.70;99.90;;;;;;5096568;28;20166;-75
2022/12/20 00:26:22;;;;;;;3.80;1.13;;;9.60;99.90;;;;;;5078026;28;20178;-75
2022/12/20 00:28:48;;;;;;;2.80;1.57;;;9.60;99.90;;;;;;5096156;28;20237;-75
2022/12/20 00:31:16;;;;;;;3.20;1.43;;;9.60;99.90;;;;;;5096063;28;20235;-74
2022/12/20 00:33:45;;;;;;;2.27;1.20;;;9.60;99.90;;;;;;5096348;28;20245;-75
2022/12/20 00:36:11;;;;;;;2.00;1.40;;;9.60;99.90;;;;;;5096183;28;20171;-75
2022/12/20 00:38:37;;;;;;;4.53;1.43;;;9.60;99.90;;;;;;5096443;28;20270;-75
2022/12/20 00:41:08;;;;;;;2.93;1.13;;;9.60;99.90;;;;;;5095796;28;20293;-75
2022/12/20 00:43:34;;;;;;;2.73;1.23;;;9.60;99.90;;;;;;5096149;28;20178;-75
2022/12/20 00:46:00;;;;;;;2.10;1.23;;;9.60;99.90;;;;;;5077655;28;20175;-74
2022/12/20 00:48:27;;;;;;;2.77;1.67;;;9.60;99.90;;;;;;5095806;28;20167;-74
2022/12/20 00:50:58;;;;;;;1.43;1.23;;;9.60;99.90;;;;;;5095845;28;20277;-75
2022/12/20 00:53:24;;;;;;;4.50;1.70;;;9.60;99.90;;;;;;5095482;28;20165;-75
2022/12/20 00:55:50;;;;;;;2.27;1.13;;;9.60;99.90;;;;;;5095745;28;20655;-75
2022/12/20 00:58:15;;;;;;;2.57;1.30;;;9.60;99.90;;;;;;5095591;28;20666;-74
2022/12/20 01:00:41;;;;;;;2.73;1.50;;;9.60;99.90;;;;;;5077232;28;20206;-75
2022/12/20 01:03:07;;;;;;;1.87;1.23;;;9.60;99.90;;;;;;5095875;28;20649;-75
2022/12/20 01:05:33;;;;;;;1.93;1.40;;;9.60;99.90;;;;;;5095430;28;20176;-75
2022/12/20 01:07:59;;;;;;;2.53;1.23;;;9.60;99.90;;;;;;5095460;28;20198;-75
2022/12/20 01:10:25;;;;;;;3.70;1.80;;;9.60;99.90;;;;;;5077098;28;20294;-75
2022/12/20 01:12:50;;;;;;;2.20;1.50;;;9.60;99.90;;;;;;5077210;28;20557;-75
2022/12/20 01:15:16;;;;;;;4.03;1.27;;;9.60;99.90;;;;;;5077217;28;20265;-74
2022/12/20 01:17:41;;;;;;;2.90;1.40;;;9.70;99.90;;;;;;5095275;28;20201;-75
2022/12/20 01:20:08;;;;;;;2.33;1.30;;;9.70;99.90;;;;;;5095134;28;20609;-75
2022/12/20 01:22:33;;;;;;;3.77;2.07;;;9.70;99.90;;;;;;5095265;28;20167;-74
2022/12/20 01:24:59;;;;;;;1.90;1.13;;;9.70;99.90;;;;;;5077566;28;20177;-74
2022/12/20 01:27:25;;;;;;;1.87;1.30;;;9.70;99.90;;;;;;5095118;28;20216;-74
2022/12/20 01:29:50;;;;;;;3.57;1.40;;;9.70;99.90;;;;;;5094934;28;20222;-74
2022/12/20 01:32:16;;;;;;;1.77;1.00;;;9.80;99.90;;;;;;5076770;28;20639;-74
2022/12/20 01:34:41;;;;;;;1.67;1.27;;;9.80;99.90;;;;;;5094897;28;20704;-74
2022/12/20 01:37:07;;;;;;;3.13;1.27;;;9.80;99.90;;;;;;5095422;28;20173;-74
2022/12/20 01:39:33;;;;;;;1.60;1.37;;;9.80;99.90;;;;;;5094780;28;20251;-75
2022/12/20 01:41:59;;;;;;;3.47;1.40;;;9.90;99.90;;;;;;5094634;28;20185;-75
2022/12/20 01:44:24;;;;;;;2.57;1.37;;;9.90;99.90;;;;;;5095200;28;20170;-74
2022/12/20 01:46:51;;;;;;;3.47;1.30;;;9.90;99.90;;;;;;5094801;28;20166;-75
2022/12/20 01:49:31;;;;;;;2.27;1.30;;;10.00;99.90;;;;;;5094533;28;20184;-74
2022/12/20 01:52:03;;;;;;;2.50;1.30;;;9.90;99.90;;;;;;5094834;28;20198;-75
2022/12/20 01:54:35;;;;;;;1.80;1.10;;;10.00;99.90;;;;;;5076402;28;20708;-75
2022/12/20 01:57:07;;;;;;;3.10;1.40;;;9.90;99.90;;;;;;5094791;28;20629;-75
2022/12/20 01:59:36;;;;;;;3.13;1.20;;;10.00;99.90;;;;;;5094256;28;20179;-75
2022/12/20 02:02:06;;;;;;;3.80;1.37;;;9.90;99.90;;;;;;5094364;28;20178;-75
2022/12/20 02:04:32;;;;;;;1.83;1.30;;;10.00;99.90;;;;;;5075481;28;20675;-75
2022/12/20 02:06:58;;;;;;;3.30;1.60;;;9.90;99.90;;;;;;5094280;28;20264;-75
2022/12/20 02:09:24;;;;;;;2.63;1.50;;;9.90;99.90;;;;;;5094817;28;20220;-75
2022/12/20 02:12:15;;;;;;;3.43;1.20;;;9.90;99.90;;;;;;5094758;28;20186;-74
2022/12/20 02:15:11;;;;;;;2.63;1.40;;;9.80;99.90;;;;;;5076097;28;20162;-74
2022/12/20 02:18:05;;;;;;;4.50;1.30;;;9.90;99.90;;;;;;5094418;28;20612;-75
2022/12/20 02:21:03;;;;;;;2.23;1.53;;;9.90;99.90;;;;;;5093986;28;20237;-75
2022/12/20 02:23:55;;;;;;;3.20;1.90;;;9.90;99.90;;;;;;5068916;28;20189;-74
2022/12/20 02:26:50;;;;;;;3.33;1.70;;;9.90;99.90;;;;;;5075846;28;20170;-75
2022/12/20 02:29:54;;;;;;;2.70;1.70;;;9.90;99.90;;;;;;5094200;28;20170;-75
2022/12/20 02:32:27;;;;;;;3.77;1.60;;;9.90;99.90;;;;;;5093811;28;20166;-75
2022/12/20 02:34:52;;;;;;;3.23;1.50;;;9.90;99.90;;;;;;5075642;28;20174;-75
2022/12/20 02:37:18;;;;;;;3.43;1.47;;;9.90;99.90;;;;;;5075539;28;20668;-75
2022/12/20 02:39:45;;;;;;;2.33;1.67;;;9.80;99.90;;;;;;5093608;28;20181;-74
2022/12/20 02:42:14;;;;;;;5.73;1.53;;;9.80;99.90;;;;;;5075466;28;20700;-75
2022/12/20 02:47:52;;;;;;;3.20;1.60;;;9.90;99.90;;;;;;5093920;28;20242;-74
2022/12/20 02:50:28;;;;;;;2.80;1.63;;;9.80;99.90;;;;;;5093550;28;20202;-75
2022/12/20 02:52:55;;;;;;;4.37;1.90;;;9.80;99.90;;;;;;5093788;28;20158;-75
2022/12/20 02:55:27;;;;;;;3.30;1.67;;;9.70;99.90;;;;;;5075526;28;20597;-75
2022/12/20 02:58:01;;;;;;;1.97;1.73;;;9.70;99.90;;;;;;5093540;28;20635;-74
2022/12/20 03:00:32;;;;;;;3.60;2.27;;;9.70;99.90;;;;;;5093281;28;20241;-75
2022/12/20 03:05:45;;;;;;;5.87;2.10;;;9.70;99.90;;;;;;5093327;28;20170;-75
2022/12/20 03:08:11;;;;;;;3.37;2.07;;;9.60;99.90;;;;;;5093391;28;20209;-74
2022/12/20 03:10:36;;;;;;;3.97;1.93;;;9.60;99.90;;;;;;5093357;28;20209;-75
2022/12/20 03:13:02;;;;;;;4.10;2.20;;;9.60;99.90;;;;;;5075073;28;20187;-75
2022/12/20 03:15:28;;;;;;;3.33;2.23;;;9.60;99.90;;;;;;5074926;28;20654;-75
2022/12/20 03:17:54;;;;;;;5.07;2.50;;;9.50;99.90;;;;;;5074980;28;20178;-75
2022/12/20 03:20:19;;;;;;;3.00;2.17;;;9.50;99.90;;;;;;5074775;28;20202;-75
2022/12/20 03:22:45;;;;;;;3.90;2.50;;;9.50;99.90;;;;;;5092993;28;20182;-75
2022/12/20 03:25:10;;;;;;;3.73;2.27;;;9.40;99.90;;;;;;5093004;28;20604;-75
2022/12/20 03:27:36;;;;;;;3.80;2.57;;;9.40;99.90;;;;;;5093267;28;20205;-75
2022/12/20 03:30:04;;;;;;;3.53;2.40;;;9.40;99.90;;;;;;5092947;28;20299;-75
2022/12/20 03:32:29;;;;;;;2.57;2.13;;;9.40;99.90;;;;;;5092843;28;20561;-75
2022/12/20 03:34:55;;;;;;;3.77;2.40;;;9.30;99.90;;;;;;5093009;28;20185;-75
2022/12/20 03:37:21;;;;;;;3.50;2.40;;;9.30;99.90;;;;;;5092929;28;20213;-75
2022/12/20 03:39:46;;;;;;;3.77;2.33;;;9.30;99.90;;;;;;5074640;28;20178;-75
2022/12/20 03:42:12;;;;;;;3.60;2.60;;;9.30;99.90;;;;;;5075287;28;20226;-75
2022/12/20 03:44:38;;;;;;;3.63;2.50;;;9.30;99.90;;;;;;5092893;28;20171;-75
2022/12/20 03:47:03;;;;;;;3.00;2.30;;;9.30;99.90;;;;;;5092995;28;20171;-75
2022/12/20 03:49:29;;;;;;;3.53;2.57;;;9.30;99.90;;;;;;5074805;28;20187;-75
2022/12/20 03:51:54;;;;;;;6.07;2.50;;;9.30;99.90;;;;;;5092620;28;20198;-75
2022/12/20 03:54:20;;;;;;;2.67;2.37;;;9.20;99.90;;;;;;5092750;28;20178;-75
2022/12/20 03:56:45;;;;;;;2.50;2.00;;;9.20;99.90;;;;;;5074544;28;20181;-75
2022/12/20 03:59:11;;;;;;;4.13;2.60;;;9.20;99.90;;;;;;5092649;28;20532;-75
2022/12/20 04:01:37;;;;;;;5.83;2.70;;;9.20;99.90;;;;;;5092852;28;20202;-75
2022/12/20 04:04:03;;;;;;;4.80;2.30;;;9.20;99.90;;;;;;5074430;28;20181;-75
2022/12/20 04:06:29;;;;;;;5.87;2.90;;;9.10;99.90;;;;;;5093137;28;20162;-75
2022/12/20 04:08:54;;;;;;;4.83;2.93;;;9.10;99.90;;;;;;5092448;28;20220;-75
2022/12/20 04:11:20;;;;;;;4.37;2.77;;;9.10;99.90;;;;;;5092780;28;20218;-75
2022/12/20 04:13:48;;;;;;;4.60;3.53;;;9.10;99.90;;;;;;5074361;28;20181;-75
2022/12/20 04:16:17;;;;;;;4.87;3.33;;;9.10;99.90;;;;;;5074387;28;20170;-75
2022/12/20 04:18:43;;;;;;;5.40;3.27;;;9.10;99.90;;;;;;5074338;28;20212;-74
2022/12/20 04:21:10;;;;;;;4.97;3.27;;;9.10;99.90;;;;;;5092271;28;20755;-74
2022/12/20 04:23:37;;;;;;;4.40;3.30;;;9.10;99.90;;;;;;5092726;28;20167;-75
2022/12/20 04:26:04;;;;;;;6.17;3.70;;;9.10;99.90;;;;;;5092440;28;20167;-75
2022/12/20 04:28:30;;;;;;;5.30;3.60;;;9.10;99.90;;;;;;5094028;28;20171;-75
2022/12/20 04:30:56;;;;;;;5.50;3.67;;;9.10;99.90;;;;;;5096407;28;20194;-75
2022/12/20 04:33:23;;;;;;;9.33;4.03;;;9.00;99.90;;;;;;5096108;28;20608;-75
2022/12/20 04:35:50;;;;;;;7.70;3.60;;;9.10;99.90;;;;;;5096797;28;20192;-74
2022/12/20 04:38:16;;;;;;;4.83;3.70;;;9.10;99.90;;;;;;5096169;28;20194;-73
2022/12/20 04:40:42;;;;;;;5.47;4.07;;;9.10;99.90;;;;;;5077644;28;20230;-75
2022/12/20 04:43:08;;;;;;;6.80;3.60;;;9.20;99.90;;;;;;5077784;28;20209;-75
2022/12/20 04:45:34;;;;;;;4.20;3.33;;;9.20;99.90;;;;;;5095888;28;20237;-74
2022/12/20 04:47:59;;;;;;;4.70;3.17;;;9.20;99.90;;;;;;5078115;28;20167;-75
2022/12/20 04:50:25;;;;;;;4.73;3.27;;;9.20;99.90;;;;;;5095819;28;20194;-75
2022/12/20 04:55:39;;;;;;;4.77;3.00;;;9.20;99.90;;;;;;5096146;28;20211;-75
2022/12/20 04:58:05;;;;;;;5.03;3.23;;;9.20;99.90;;;;;;5095709;28;20714;-74
2022/12/20 05:00:31;;;;;;;4.17;2.73;;;9.20;99.90;;;;;;5095509;28;20686;-74
2022/12/20 05:02:56;;;;;;;6.13;3.13;;;9.20;99.90;;;;;;5077636;28;20640;-74
2022/12/20 05:05:22;;;;;;;5.20;3.17;;;9.20;99.90;;;;;;5095482;28;20228;-75
2022/12/20 05:07:47;;;;;;;3.67;2.77;;;9.20;99.90;;;;;;5095528;28;20174;-75
2022/12/20 05:10:13;;;;;;;3.20;2.90;;;9.20;99.90;;;;;;5077184;28;20272;-75
2022/12/20 05:12:38;;;;;;;4.70;2.57;;;9.20;99.90;;;;;;5077315;28;20284;-75
2022/12/20 05:15:04;;;;;;;6.70;3.40;;;9.20;99.90;;;;;;5095583;28;20223;-75
2022/12/20 05:17:30;;;;;;;4.13;3.30;;;9.10;99.90;;;;;;5095607;28;20576;-75
2022/12/20 05:19:55;;;;;;;5.10;2.97;;;9.10;99.90;;;;;;5095482;28;20190;-75
2022/12/20 05:27:49;;;;;;;6.17;3.10;;;9.10;99.90;;;;;;5095315;28;20229;-75
2022/12/20 05:30:15;;;;;;;4.67;3.07;;;9.10;99.90;;;;;;5094991;28;20190;-75
2022/12/20 05:32:40;;;;;;;5.47;3.17;;;9.10;99.90;;;;;;5076905;28;20178;-75
2022/12/20 05:35:07;;;;;;;4.47;2.60;;;9.10;99.90;;;;;;5076845;28;20178;-75
2022/12/20 05:37:32;;;;;;;6.00;3.30;;;9.10;99.90;;;;;;5094990;28;20251;-75
2022/12/20 05:39:58;;;;;;;3.30;2.57;;;9.00;99.90;;;;;;5075656;28;20623;-74
2022/12/20 05:42:23;;;;;;;4.90;2.70;;;9.10;99.90;;;;;;5094788;28;20724;-74
2022/12/20 05:44:49;;;;;;;3.33;2.47;;;9.10;99.90;;;;;;5094929;28;20558;-75
2022/12/20 05:47:14;;;;;;;6.37;2.97;;;9.10;99.90;;;;;;5076662;28;20226;-74
2022/12/20 05:49:40;;;;;;;7.50;3.03;;;9.10;99.90;;;;;;5094656;28;20171;-74
2022/12/20 05:52:05;;;;;;;3.77;2.53;;;9.10;99.90;;;;;;5076665;28;20210;-72
2022/12/20 05:54:31;;;;;;;7.07;2.90;;;9.10;99.90;;;;;;5094906;28;20213;-74
2022/12/20 05:56:57;;;;;;;4.93;2.67;;;9.10;99.90;;;;;;5094699;28;20178;-74
2022/12/20 05:59:22;;;;;;;5.37;3.10;;;9.10;99.90;;;;;;5094711;28;20212;-73
2022/12/20 06:01:48;;;;;;;2.63;2.37;;;9.10;99.90;;;;;;5094477;28;20194;-74
2022/12/20 06:04:13;;;;;;;6.20;2.63;;;9.10;99.90;;;;;;5076237;28;20181;-74
2022/12/20 06:06:39;;;;;;;4.30;2.73;;;9.10;99.90;;;;;;5076362;28;20182;-74
2022/12/20 06:09:04;;;;;;;3.60;2.70;;;9.10;99.90;;;;;;5094284;28;20186;-73
2022/12/20 06:11:30;;;;;;;6.57;2.70;;;9.10;99.90;;;;;;5076057;28;20572;-74
2022/12/20 06:13:55;;;;;;;5.83;2.70;;;9.10;99.90;;;;;;5094179;28;20549;-74
2022/12/20 06:16:22;;;;;;;3.20;2.30;;;9.10;99.90;;;;;;5094693;28;20170;-74
2022/12/20 06:18:47;;;;;;;4.67;2.60;;;9.10;99.90;;;;;;5094324;28;20174;-74
2022/12/20 06:21:13;;;;;;;5.50;2.70;;;9.10;99.90;;;;;;5075848;28;20251;-74
2022/12/20 06:23:38;;;;;;;6.60;2.90;;;9.10;99.90;;;;;;5094061;28;20254;-74
2022/12/20 06:26:08;;;;;;;5.43;2.50;;;9.20;99.90;;;;;;5094215;28;20404;-75
2022/12/20 06:28:34;;;;;;;3.03;2.30;;;9.20;99.90;;;;;;5077029;28;20239;-74
2022/12/20 06:30:59;;;;;;;5.23;2.60;;;9.30;99.90;;;;;;5093903;28;20186;-74
2022/12/20 06:33:25;;;;;;;6.63;2.97;;;9.20;99.90;;;;;;5075936;28;20166;-74
2022/12/20 06:35:51;;;;;;;5.07;3.20;;;9.20;99.90;;;;;;5075840;28;20178;-74
2022/12/20 06:38:17;;;;;;;4.13;2.57;;;9.30;99.90;;;;;;5093742;28;20174;-74
2022/12/20 06:40:43;;;;;;;6.70;3.10;;;9.30;99.90;;;;;;5093674;28;20577;-75
2022/12/20 06:43:08;;;;;;;2.87;2.43;;;9.30;99.90;;;;;;5075482;28;20170;-74
2022/12/20 06:45:34;;;;;;;5.63;2.30;;;9.30;99.90;;;;;;5075464;28;20174;-75
2022/12/20 06:48:00;;;;;;;6.80;2.97;;;9.30;99.90;;;;;;5093603;28;20202;-75
2022/12/20 06:50:26;;;;;;;7.10;2.60;;;9.30;99.90;;;;;;5093180;28;20185;-75
2022/12/20 06:52:52;;;;;;;4.40;2.77;;;9.40;99.90;;;;;;5094030;28;20181;-75
2022/12/20 06:55:17;;;;;;;3.27;2.33;;;9.30;99.90;;;;;;5093478;28;20174;-74
2022/12/20 06:57:43;;;;;;;4.30;2.30;;;9.40;99.90;;;;;;5093414;28;20552;-74
2022/12/20 07:00:09;;;;;;;4.13;2.20;;;9.40;99.90;;;;;;5093206;28;20201;-74
2022/12/20 07:02:34;;;;;;;5.10;2.43;;;9.40;99.90;;;;;;5093340;28;20554;-74
2022/12/20 07:05:00;;;;;;;2.87;2.10;;;9.40;99.90;;;;;;5093436;28;20177;-74
2022/12/20 07:07:25;;;;;;;5.63;2.50;;;9.40;99.90;;;;;;5075194;28;20170;-74
2022/12/20 07:09:51;;;;;;;4.80;2.10;;;9.50;99.90;;;;;;5075125;28;20585;-75
2022/12/20 07:12:17;;;;;;;3.10;2.17;;;9.50;99.90;;;;;;5075010;28;20174;-75
2022/12/20 07:14:43;;;;;;;4.93;2.40;;;9.50;99.90;;;;;;5093070;28;20224;-74
2022/12/20 07:17:09;;;;;;;3.93;2.10;;;9.50;99.90;;;;;;5092931;28;20163;-74
2022/12/20 07:19:35;;;;;;;4.23;2.47;;;9.50;99.90;;;;;;5074839;28;20265;-74
2022/12/20 07:22:01;;;;;;;3.10;2.17;;;9.50;99.90;;;;;;5093300;28;20185;-75
2022/12/20 07:24:27;;;;;;;3.27;2.13;;;9.50;99.90;;;;;;5093109;28;20170;-74
2022/12/20 07:26:53;;;;;;;1.93;1.63;;;9.50;99.90;;;;;;5093081;28;20170;-74
2022/12/20 07:29:19;;;;;;;4.93;2.10;;;9.50;99.90;;;;;;5092799;28;20664;-75
2022/12/20 07:31:44;;;;;;;5.37;2.10;;;9.50;99.90;;;;;;5093080;28;20205;-76
2022/12/20 07:34:10;;;;;;;4.10;2.03;;;9.50;99.90;;;;;;5093146;28;20181;-75
2022/12/20 07:36:36;;;;;;;5.30;2.37;;;9.60;99.90;;;;;;5114860;22;20578;-78
2022/12/20 07:39:01;;;;;;;3.53;2.20;;;9.60;99.90;;;;;;5072018;28;20531;-76
2022/12/20 07:41:27;;;;;;;4.20;1.90;;;9.60;99.90;;;;;;5072736;28;20201;-76
2022/12/20 07:43:53;;;;;;;2.93;2.00;;;9.60;99.90;;;;;;5072789;28;20170;-76
2022/12/20 07:46:18;;;;;;;2.90;2.03;;;9.60;99.90;;;;;;5071459;28;20651;-76
2022/12/20 07:48:44;;;;;;;4.10;2.00;;;9.60;99.90;;;;;;5072712;28;20652;-76
2022/12/20 07:51:38;;;;;;;2.47;1.80;;;9.60;99.90;;;;;;5072729;28;20182;-76
2022/12/20 07:54:12;;;;;;;4.00;1.97;;;9.60;99.90;;;;;;5072983;28;20159;-76
2022/12/20 07:56:41;;;;;;;5.43;2.10;;;9.50;99.90;;;;;;5073176;28;20265;-77
2022/12/20 07:59:09;;;;;;;3.63;1.97;;;9.50;99.90;;;;;;5072549;28;20585;-77
2022/12/20 08:01:35;;;;;;;2.97;2.30;;;9.50;99.90;;;;;;5072564;28;20187;-77
2022/12/20 08:04:08;;;;;;;2.70;2.27;;;9.50;99.90;;;;;;5073998;28;20178;-77
2022/12/20 08:06:36;;;;;;;5.13;1.90;;;9.50;99.90;;;;;;5076778;28;20155;-78
2022/12/20 08:09:04;;;;;;;3.13;2.00;;;9.50;99.90;;;;;;5076586;28;20163;-77
2022/12/20 08:11:32;;;;;;;4.40;2.00;;;9.50;99.90;;;;;;5076473;28;20171;-75
2022/12/20 08:13:57;;;;;;;4.53;1.87;;;9.50;99.90;;;;;;5076423;28;20686;-76
2022/12/20 08:16:23;;;;;;;2.70;2.23;;;9.60;99.90;;;;;;5076929;28;20175;-78
2022/12/20 08:18:48;;;;;;;2.63;1.90;;;9.70;99.90;;;;;;5075392;28;20186;-76
2022/12/20 08:21:14;;;;;;;5.10;1.90;;;9.70;99.90;;;;;;5076179;28;20281;-77
2022/12/20 08:23:40;;;;;;;3.10;2.17;;;9.70;99.90;;;;;;5076135;28;20167;-77
2022/12/20 08:26:05;;;;;;;2.40;1.53;;;9.70;99.90;;;;;;5074890;28;20219;-77
2022/12/20 08:28:31;;;;;;;5.17;2.07;;;9.70;99.90;;;;;;5074785;28;20194;-77
2022/12/20 08:31:01;;;;;;;4.20;2.07;;;9.70;99.90;;;;;;5076122;28;20206;-77
2022/12/20 08:33:27;;;;;;;5.50;2.00;;;9.70;99.90;;;;;;5076017;28;20248;-78
2022/12/20 08:36:01;;;;;;;3.07;1.70;;;9.80;99.90;;;;;;5074868;28;20203;-78
2022/12/20 08:38:28;;;;;;;4.03;2.00;;;9.80;99.90;;;;;;5074690;28;20210;-77
2022/12/20 08:40:54;;;;;;;2.53;1.83;;;9.80;99.90;;;;;;5076107;28;20568;-77
2022/12/20 08:43:19;;;;;;;2.23;1.50;;;9.90;99.90;;;;;;5075897;28;20171;-77
2022/12/20 08:45:51;;;;;;;3.17;1.80;;;9.90;99.90;;;;;;5075994;28;20663;-77
2022/12/20 08:48:16;;;;;;;3.47;1.97;;;9.90;99.90;;;;;;5074476;28;20244;-77
2022/12/20 08:50:42;;;;;;;3.23;2.00;;;10.00;99.90;;;;;;5074574;28;20175;-78
2022/12/20 08:53:07;;;;;;;2.80;2.30;;;9.90;99.90;;;;;;5075712;28;20171;-78
2022/12/20 08:55:33;;;;;;;3.60;1.87;;;9.90;99.90;;;;;;5075612;28;20662;-77
2022/12/20 08:57:58;;;;;;;3.40;1.73;;;10.00;99.90;;;;;;5075695;28;20201;-78
2022/12/20 09:00:24;;;;;;;2.60;1.90;;;10.00;99.90;;;;;;5075684;28;20230;-77
2022/12/20 09:02:50;;;;;;;4.00;1.73;;;10.00;99.90;;;;;;5075631;28;20174;-78
2022/12/20 09:05:16;;;;;;;2.10;1.70;;;10.00;99.90;;;;;;5075603;28;20166;-78
2022/12/20 09:07:41;;;;;;;3.30;1.67;;;10.00;99.90;;;;;;5074169;28;20198;-78
2022/12/20 09:10:08;;;;;;;4.37;1.77;;;10.00;99.90;;;;;;5075646;28;20536;-78
2022/12/20 09:12:36;;;;;;;5.43;1.90;;;10.00;99.90;;;;;;5074290;28;20175;-77
2022/12/20 09:15:02;;;;;;;4.77;2.20;;;10.00;99.90;;;;;;5073865;28;20517;-77
2022/12/20 09:17:27;;;;;;;4.03;1.90;;;10.00;99.90;;;;;;5075231;28;20194;-77
2022/12/20 09:19:54;;;;;;;2.20;1.80;;;10.10;99.90;;;;;;5075082;28;20167;-77
2022/12/20 09:22:19;;;;;;;4.80;1.90;;;10.00;99.90;;;;;;5073895;28;20677;-78
2022/12/20 09:24:45;;;;;;;2.20;1.53;;;10.00;99.90;;;;;;5075205;28;20179;-77
2022/12/20 09:27:11;;;;;;;4.13;2.13;;;10.00;99.90;;;;;;5075036;28;20183;-77
2022/12/20 09:29:36;;;;;;;2.80;1.93;;;10.10;99.90;;;;;;5075034;28;20171;-78
2022/12/20 09:32:02;;;;;;;2.43;1.53;;;10.10;99.90;;;;;;5074985;28;20175;-77
2022/12/20 09:34:27;;;;;;;2.83;1.70;;;10.10;99.90;;;;;;5075106;28;20639;-77
2022/12/20 09:36:53;;;;;;;5.97;1.77;;;10.10;99.90;;;;;;5074718;28;20206;-78
2022/12/20 09:39:19;;;;;;;3.77;2.37;;;10.10;99.90;;;;;;5075098;28;20187;-78
2022/12/20 09:41:45;;;;;;;3.13;1.83;;;10.10;99.90;;;;;;5073416;28;20222;-77
2022/12/20 09:44:24;;;;;;;3.03;1.70;;;10.20;99.90;;;;;;5074871;28;20174;-78
2022/12/20 09:46:57;;;;;;;2.50;1.90;;;10.10;99.90;;;;;;5074605;28;20270;-78
2022/12/20 09:49:28;;;;;;;3.37;1.60;;;10.20;99.90;;;;;;5074962;28;20174;-78
2022/12/20 09:52:08;;;;;;;3.63;1.90;;;10.20;99.90;;;;;;5073465;28;20585;-78
2022/12/20 09:54:50;;;;;;;2.13;1.80;;;10.20;99.90;;;;;;5074630;28;20156;-77
2022/12/20 09:57:49;;;;;;;4.40;2.00;;;10.20;99.90;;;;;;5073289;28;20243;-77
2022/12/20 10:00:17;;;;;;;3.37;1.90;;;10.20;99.90;;;;;;5073159;28;20194;-76
2022/12/20 10:02:42;;;;;;;6.00;1.87;;;10.20;99.90;;;;;;5073140;28;20190;-76
2022/12/20 10:05:28;;;;;;;2.40;1.90;;;10.20;99.90;;;;;;5073095;28;20406;-76
2022/12/20 10:08:12;;;;;;;4.63;2.00;;;10.20;99.90;;;;;;5074565;28;20240;-76
2022/12/20 10:10:50;;;;;;;3.97;2.10;;;10.20;99.90;;;;;;5074560;28;20246;-76
2022/12/20 10:13:48;;;;;;;4.53;2.00;;;10.20;99.90;;;;;;5074322;28;20205;-76
2022/12/20 10:16:34;;;;;;;3.67;1.90;;;10.20;99.90;;;;;;5040259;28;20187;-76
2022/12/20 10:19:20;;;;;;;4.80;1.90;;;10.20;99.90;;;;;;5072787;28;20163;-77
2022/12/20 10:21:54;;;;;;;5.13;1.90;;;10.20;99.90;;;;;;5074244;28;20674;-76
2022/12/20 10:24:33;;;;;;;3.87;1.70;;;10.20;99.90;;;;;;5074400;28;20200;-76
2022/12/20 10:27:10;;;;;;;3.93;1.80;;;10.20;99.90;;;;;;5072095;28;20206;-76
2022/12/20 10:29:36;;;;;;;4.50;2.03;;;10.30;99.90;;;;;;5074027;28;20159;-76
2022/12/20 10:32:09;;;;;;;3.13;1.73;;;10.30;99.90;;;;;;5072532;28;20179;-76
2022/12/20 10:34:35;;;;;;;2.47;1.60;;;10.30;99.90;;;;;;5072665;28;20167;-76
2022/12/20 10:37:14;;;;;;;2.00;1.53;;;10.30;99.90;;;;;;5072291;28;20217;-76
2022/12/20 10:39:42;;;;;;;3.73;2.00;;;10.40;99.90;;;;;;5073704;28;20224;-76
2022/12/20 10:42:38;;;;;;;3.53;2.10;;;10.40;99.90;;;;;;5072265;28;20195;-76
2022/12/20 10:45:25;;;;;;;3.97;1.90;;;10.40;99.90;;;;;;5073582;28;20166;-77
2022/12/20 10:47:56;;;;;;;7.40;2.07;;;10.40;99.90;;;;;;5073987;28;20218;-76
2022/12/20 10:50:23;;;;;;;2.73;1.83;;;10.40;99.90;;;;;;5073578;28;20160;-76
2022/12/20 10:53:24;;;;;;;5.33;2.23;;;10.40;99.90;;;;;;5072121;28;20183;-76
2022/12/20 10:55:51;;;;;;;2.67;1.77;;;10.40;99.90;;;;;;5029921;28;20193;-76
2022/12/20 10:58:28;;;;;;;3.97;2.00;;;10.50;99.90;;;;;;5073259;28;20197;-76
2022/12/20 11:01:09;;;;;;;3.23;2.00;;;10.50;99.90;;;;;;5073241;28;20187;-76
2022/12/20 11:03:56;;;;;;;3.17;1.90;;;10.50;99.90;;;;;;5073505;28;20639;-76
2022/12/20 11:06:29;;;;;;;2.47;1.53;;;10.50;99.90;;;;;;5073197;28;20147;-77
2022/12/20 11:09:21;;;;;;;3.20;1.80;;;10.50;99.90;;;;;;5073181;28;20147;-76
2022/12/20 11:12:10;;;;;;;2.67;1.87;;;10.50;99.90;;;;;;5072174;28;20601;-78
2022/12/20 11:14:37;;;;;;;5.23;2.37;;;10.60;99.90;;;;;;5073515;28;20242;-76
2022/12/20 11:17:14;;;;;;;5.97;2.10;;;10.60;99.90;;;;;;5071753;28;20248;-76
2022/12/20 11:19:59;;;;;;;4.47;1.80;;;10.60;99.90;;;;;;5073073;28;20163;-76
2022/12/20 11:22:50;;;;;;;3.00;1.77;;;10.50;99.90;;;;;;5071900;28;20624;-78
2022/12/20 11:25:53;;;;;;;3.53;2.00;;;10.60;99.90;;;;;;5074146;28;20158;-76
2022/12/20 11:28:42;;;;;;;2.50;1.93;;;10.60;99.90;;;;;;5072959;28;20201;-77
2022/12/20 11:31:13;;;;;;;5.20;1.90;;;10.60;99.90;;;;;;5072990;28;20175;-76
2022/12/20 11:33:42;;;;;;;2.07;1.80;;;10.60;99.90;;;;;;5071706;28;20186;-76
2022/12/20 11:36:13;;;;;;;2.00;1.80;;;10.60;99.90;;;;;;5073696;28;20228;-79
2022/12/20 11:39:20;;;;;;;4.53;1.90;;;10.60;99.90;;;;;;5071814;28;20703;-76
2022/12/20 11:41:57;;;;;;;2.97;1.70;;;10.60;99.90;;;;;;5064917;28;20221;-76
2022/12/20 11:44:51;;;;;;;6.50;2.00;;;10.60;99.90;;;;;;5072895;28;20171;-76
2022/12/20 11:47:38;;;;;;;1.83;1.30;;;10.60;99.90;;;;;;5071486;28;20277;-76
2022/12/20 11:50:26;;;;;;;5.67;1.90;;;10.60;99.90;;;;;;5072828;28;20163;-76
2022/12/20 11:53:15;;;;;;;3.93;1.83;;;10.60;99.90;;;;;;5073075;28;20621;-76
2022/12/20 11:55:43;;;;;;;4.17;1.77;;;10.60;99.90;;;;;;5071717;28;20524;-76
2022/12/20 11:58:50;;;;;;;6.53;2.63;;;10.60;99.90;;;;;;5072680;28;20266;-76
2022/12/20 12:01:19;;;;;;;5.17;2.17;;;10.60;99.90;;;;;;5042761;28;20687;-76
2022/12/20 12:04:15;;;;;;;2.57;2.03;;;10.60;99.90;;;;;;5072662;28;20201;-76
2022/12/20 12:06:46;;;;;;;3.00;2.10;;;10.60;99.90;;;;;;5071284;28;20206;-76
2022/12/20 12:09:22;;;;;;;4.33;2.40;;;10.60;99.90;;;;;;5073072;28;20535;-76
2022/12/20 12:12:01;;;;;;;2.50;1.97;;;10.60;99.90;;;;;;5072575;28;20163;-76
2022/12/20 12:14:40;;;;;;;7.97;2.23;;;10.70;99.90;;;;;;5071278;28;20167;-76
2022/12/20 12:17:19;;;;;;;2.30;1.90;;;10.60;99.90;;;;;;5071223;28;20197;-76
2022/12/20 12:19:48;;;;;;;3.73;2.20;;;10.70;99.90;;;;;;5071210;28;20167;-76
2022/12/20 12:22:23;;;;;;;4.00;1.97;;;10.70;99.90;;;;;;5072390;28;20201;-76
2022/12/20 12:24:55;;;;;;;4.63;2.10;;;10.70;99.90;;;;;;5072847;28;20257;-76
2022/12/20 12:27:26;;;;;;;5.03;1.80;;;10.70;99.90;;;;;;5072313;28;20188;-76
2022/12/20 12:29:57;;;;;;;2.60;1.93;;;10.70;99.90;;;;;;5071107;28;20177;-76
2022/12/20 12:32:33;;;;;;;3.63;1.97;;;10.70;99.90;;;;;;5072375;28;20179;-76
2022/12/20 12:35:30;;;;;;;2.93;2.10;;;10.70;99.90;;;;;;5072397;28;20171;-77
2022/12/20 12:38:24;;;;;;;4.37;2.07;;;10.80;99.90;;;;;;5070861;28;20222;-76
2022/12/20 12:41:20;;;;;;;4.20;2.23;;;10.80;99.90;;;;;;5072792;28;20244;-76
2022/12/20 12:43:50;;;;;;;4.03;1.93;;;10.80;99.90;;;;;;5070927;28;20639;-76
2022/12/20 12:46:24;;;;;;;5.63;2.03;;;10.80;99.90;;;;;;5072272;28;20171;-76
2022/12/20 12:48:57;;;;;;;4.43;2.17;;;10.80;99.90;;;;;;5072753;28;20166;-76
2022/12/20 12:51:35;;;;;;;2.47;2.17;;;10.90;99.90;;;;;;5074548;28;20174;-76
2022/12/20 12:54:08;;;;;;;4.00;1.87;;;10.90;99.90;;;;;;5075773;28;20181;-76
2022/12/20 12:56:39;;;;;;;5.20;2.00;;;10.90;99.90;;;;;;5075727;28;20155;-78
2022/12/20 12:59:05;;;;;;;4.53;2.10;;;10.90;99.90;;;;;;5075733;28;20159;-76
2022/12/20 13:02:14;;;;;;;7.93;1.93;;;10.80;99.90;;;;;;5075855;28;20228;-76
2022/12/20 13:05:00;;;;;;;3.00;1.57;;;10.80;99.90;;;;;;5075331;28;20175;-76
2022/12/20 13:07:31;;;;;;;3.53;1.83;;;10.80;99.90;;;;;;5075814;28;20186;-76
2022/12/20 13:10:28;;;;;;;3.03;1.43;;;10.80;99.90;;;;;;5075478;28;20203;-76
2022/12/20 13:13:01;;;;;;;2.00;1.50;;;10.80;99.90;;;;;;5047315;28;20187;-76
2022/12/20 13:15:27;;;;;;;2.40;1.63;;;10.80;99.90;;;;;;5074077;28;20265;-76
2022/12/20 13:17:57;;;;;;;3.50;1.80;;;10.80;99.90;;;;;;5074057;28;20570;-76
2022/12/20 13:20:30;;;;;;;2.90;1.77;;;10.80;99.90;;;;;;5075350;28;20568;-76
2022/12/20 13:23:09;;;;;;;4.03;1.80;;;10.70;99.90;;;;;;5074014;28;20205;-76
2022/12/20 13:25:40;;;;;;;4.10;1.50;;;10.70;99.90;;;;;;5075190;28;20209;-77